Airfield :
LOGIN :

Register | Disclaimer

   EN    FR    IT 

 










Legend :    VFR   Marginal VFR   IFR   Intensive IFR   Very Intensive IFR
Visi :
Ceiling :
>= 8 km
>= 3000ft
5 to 8 km
1000 to 3000 ft
1500m to 5 km
500 to 1000 ft
800 to 1500m
200 to 500 ft
< 800m
< 200 ft
Symbols :   Thunderstorms  Fog  Heavy snow  Heavy precipitations  Wind > 20 kt
SIGMETs :     Misc.  Thunderstorms  Icing  Turbulence  Mountain Waves  Volcanic Ashes






- Airport Elevation : 39 ft


ETNH - Hohn AB

CURRENT METAR :
  • 061520Z 21012KT 3500 -DZ BR BKN008 06/05 Q0999 YLO

EXPIRED METARs :
  • 061420Z 21012KT 2500 -DZ BR SCT004 BKN006 06/05 Q1000 YLO FCST CANCEL
  • 061344Z 21012KT 3500 BR FEW003 BKN006 06/05 Q1000 YLO YLO TEMPO AMB
  • 061320Z 21010G23KT 2500 -DZ BR BKN006 06/05 Q1000 YLO YLO TEMPO AMB
  • 061248Z 21011G21KT 2500 -RADZ BR BKN006 06/05 Q1001 YLO YLO TEMPO AMB

TAF TAF ETNH
Valid from the 06 at 12:00 until the 07 at 00:00 UTC


061120Z 0612/0624 22015G25KT 4000 -DZ SCT003 BKN007
TEMPO 0612/0624 21020G30KT 2000 DZ SCT002 OVC004
PROB30 0612/0624 23025G35KT 1000 DZRA BKN001 OVC003 BY ETGL



MET'MAP, your aeronautical weather chart ! - Copyright ORBIFLY December 2007 - Disclaimer

ORBIFLY MET'MAP TEAM :

Programming & Development : Alexandra Zaïnal
Concept & original design : Baudouin d'Aumeries
Assistance for programming : Marc-Olivier Méhu
Technical & hardware support : Manuel Goepfert

Contact : metmap@orbifly.com




SOURCES & CREDITS :

   NOAA